Terminal Aerodrome Forecast
Issued by NWS Paducah, KY

Home | Current Version | Previous Version | Text Only | Print | Product List | Glossary On
Versions: 1 2 3 4 5 6 7 8 9 10 11 12 13 14 15 16 17 18 19 20 21 22
838
FTUS43 KPAH 221136
TAFPAH
TAF
KPAH 221136Z 2212/2312 00000KT 3SM BR OVC006
      TEMPO 2212/2214 1 1/2SM BR OVC003
     FM221700 17006KT P6SM BKN012
     FM221900 18005KT P6SM BKN020
     FM222100 19005KT P6SM BKN035
     FM230800 20003KT 5SM BR BKN025=

USA.gov is the U.S. government's official web portal to all federal, state and local government web resources and services.